sensor_id;sensor_type;location;lat;lon;timestamp;temperature;humidity
16801;DHT22;8518;53.236;10.384;2023-04-06T00:00:00;2.60;99.90
16801;DHT22;8518;53.236;10.384;2023-04-06T00:05:48;2.10;99.90
16801;DHT22;8518;53.236;10.384;2023-04-06T00:08:14;2.00;99.90
16801;DHT22;8518;53.236;10.384;2023-04-06T00:10:40;2.30;99.90
16801;DHT22;8518;53.236;10.384;2023-04-06T00:16:28;2.00;99.90
16801;DHT22;8518;53.236;10.384;2023-04-06T00:18:54;1.80;99.90
16801;DHT22;8518;53.236;10.384;2023-04-06T00:21:19;1.70;99.90
16801;DHT22;8518;53.236;10.384;2023-04-06T00:27:07;1.70;99.90
16801;DHT22;8518;53.236;10.384;2023-04-06T00:32:55;1.70;99.90
16801;DHT22;8518;53.236;10.384;2023-04-06T00:35:21;1.60;99.90
16801;DHT22;8518;53.236;10.384;2023-04-06T00:37:47;1.50;99.90
16801;DHT22;8518;53.236;10.384;2023-04-06T00:40:13;1.30;99.90
16801;DHT22;8518;53.236;10.384;2023-04-06T00:46:01;1.00;99.90
16801;DHT22;8518;53.236;10.384;2023-04-06T00:51:49;1.30;99.90
16801;DHT22;8518;53.236;10.384;2023-04-06T00:57:36;1.30;99.90
16801;DHT22;8518;53.236;10.384;2023-04-06T01:00:03;1.20;99.90
16801;DHT22;8518;53.236;10.384;2023-04-06T01:05:51;1.30;99.90
16801;DHT22;8518;53.236;10.384;2023-04-06T01:08:21;1.20;99.90
16801;DHT22;8518;53.236;10.384;2023-04-06T01:10:46;3.20;99.90
16801;DHT22;8518;53.236;10.384;2023-04-06T01:16:34;1.10;99.90
16801;DHT22;8518;53.236;10.384;2023-04-06T01:19:00;1.00;99.90
16801;DHT22;8518;53.236;10.384;2023-04-06T01:21:25;1.00;99.90
16801;DHT22;8518;53.236;10.384;2023-04-06T01:27:13;1.00;99.90
16801;DHT22;8518;53.236;10.384;2023-04-06T01:33:01;0.90;99.90
16801;DHT22;8518;53.236;10.384;2023-04-06T01:35:27;2.40;99.90
16801;DHT22;8518;53.236;10.384;2023-04-06T01:37:53;0.90;99.90
16801;DHT22;8518;53.236;10.384;2023-04-06T01:40:19;3.30;99.90
16801;DHT22;8518;53.236;10.384;2023-04-06T01:46:07;0.90;99.90
16801;DHT22;8518;53.236;10.384;2023-04-06T01:48:33;0.80;99.90
16801;DHT22;8518;53.236;10.384;2023-04-06T01:50:58;0.80;99.90
16801;DHT22;8518;53.236;10.384;2023-04-06T01:56:46;0.70;99.90
16801;DHT22;8518;53.236;10.384;2023-04-06T01:59:12;0.60;99.90
16801;DHT22;8518;53.236;10.384;2023-04-06T02:01:38;0.60;99.90
16801;DHT22;8518;53.236;10.384;2023-04-06T02:07:25;0.50;99.90
16801;DHT22;8518;53.236;10.384;2023-04-06T02:09:54;0.50;99.90
16801;DHT22;8518;53.236;10.384;2023-04-06T02:12:20;0.30;99.90
16801;DHT22;8518;53.236;10.384;2023-04-06T02:14:47;0.30;99.90
16801;DHT22;8518;53.236;10.384;2023-04-06T02:17:13;0.30;99.90
16801;DHT22;8518;53.236;10.384;2023-04-06T02:19:38;0.20;99.90
16801;DHT22;8518;53.236;10.384;2023-04-06T02:22:04;0.20;99.90
16801;DHT22;8518;53.236;10.384;2023-04-06T02:24:29;0.20;99.90
16801;DHT22;8518;53.236;10.384;2023-04-06T02:26:55;0.00;99.90
16801;DHT22;8518;53.236;10.384;2023-04-06T02:29:21;0.20;99.90
16801;DHT22;8518;53.236;10.384;2023-04-06T02:31:46;0.60;99.90
16801;DHT22;8518;53.236;10.384;2023-04-06T02:37:34;0.20;99.90
16801;DHT22;8518;53.236;10.384;2023-04-06T02:43:22;0.20;99.90
16801;DHT22;8518;53.236;10.384;2023-04-06T02:45:48;0.20;99.90
16801;DHT22;8518;53.236;10.384;2023-04-06T02:48:14;0.20;99.90
16801;DHT22;8518;53.236;10.384;2023-04-06T02:50:40;0.90;99.90
16801;DHT22;8518;53.236;10.384;2023-04-06T02:56:27;0.20;99.90
16801;DHT22;8518;53.236;10.384;2023-04-06T02:58:55;0.20;99.90
16801;DHT22;8518;53.236;10.384;2023-04-06T03:01:21;0.20;99.90
16801;DHT22;8518;53.236;10.384;2023-04-06T03:07:09;0.30;99.90
16801;DHT22;8518;53.236;10.384;2023-04-06T03:09:37;0.80;99.90
16801;DHT22;8518;53.236;10.384;2023-04-06T03:12:02;-0.20;99.90
16801;DHT22;8518;53.236;10.384;2023-04-06T03:14:28;0.30;99.90
16801;DHT22;8518;53.236;10.384;2023-04-06T03:16:54;0.30;99.90
16801;DHT22;8518;53.236;10.384;2023-04-06T03:19:20;0.10;99.90
16801;DHT22;8518;53.236;10.384;2023-04-06T03:21:45;1.30;99.90
16801;DHT22;8518;53.236;10.384;2023-04-06T03:27:33;0.20;99.90
16801;DHT22;8518;53.236;10.384;2023-04-06T03:29:58;0.20;99.90
16801;DHT22;8518;53.236;10.384;2023-04-06T03:32:24;0.50;99.90
16801;DHT22;8518;53.236;10.384;2023-04-06T03:34:50;0.10;99.90
16801;DHT22;8518;53.236;10.384;2023-04-06T03:37:15;0.20;99.90
16801;DHT22;8518;53.236;10.384;2023-04-06T03:39:41;0.20;99.90
16801;DHT22;8518;53.236;10.384;2023-04-06T03:42:06;0.10;99.90
16801;DHT22;8518;53.236;10.384;2023-04-06T03:44:32;0.10;99.90
16801;DHT22;8518;53.236;10.384;2023-04-06T03:46:57;0.10;99.90
16801;DHT22;8518;53.236;10.384;2023-04-06T03:49:23;0.10;99.90
16801;DHT22;8518;53.236;10.384;2023-04-06T03:51:49;-0.10;99.90
16801;DHT22;8518;53.236;10.384;2023-04-06T03:57:37;0.00;99.90
16801;DHT22;8518;53.236;10.384;2023-04-06T04:03:25;0.00;99.90
16801;DHT22;8518;53.236;10.384;2023-04-06T04:05:53;-0.40;99.90
16801;DHT22;8518;53.236;10.384;2023-04-06T04:08:25;-0.10;99.90
16801;DHT22;8518;53.236;10.384;2023-04-06T04:10:50;-0.10;99.90
16801;DHT22;8518;53.236;10.384;2023-04-06T04:16:38;-0.10;99.90
16801;DHT22;8518;53.236;10.384;2023-04-06T04:19:05;0.30;99.90
16801;DHT22;8518;53.236;10.384;2023-04-06T04:21:31;-0.20;99.90
16801;DHT22;8518;53.236;10.384;2023-04-06T04:27:20;-0.30;99.90
16801;DHT22;8518;53.236;10.384;2023-04-06T04:29:46;-0.30;99.90
16801;DHT22;8518;53.236;10.384;2023-04-06T04:32:13;0.00;99.90
16801;DHT22;8518;53.236;10.384;2023-04-06T04:34:39;-0.30;99.90
16801;DHT22;8518;53.236;10.384;2023-04-06T04:37:07;-0.50;99.90
16801;DHT22;8518;53.236;10.384;2023-04-06T04:39:33;-0.30;99.90
16801;DHT22;8518;53.236;10.384;2023-04-06T04:41:58;-0.40;99.90
16801;DHT22;8518;53.236;10.384;2023-04-06T04:44:24;-0.20;99.90
16801;DHT22;8518;53.236;10.384;2023-04-06T04:46:50;-0.40;99.90
16801;DHT22;8518;53.236;10.384;2023-04-06T04:49:16;1.10;99.90
16801;DHT22;8518;53.236;10.384;2023-04-06T04:51:41;-0.20;99.90
16801;DHT22;8518;53.236;10.384;2023-04-06T04:57:30;-0.20;99.90
16801;DHT22;8518;53.236;10.384;2023-04-06T04:59:56;-0.30;99.90
16801;DHT22;8518;53.236;10.384;2023-04-06T05:02:22;-0.60;99.90
16801;DHT22;8518;53.236;10.384;2023-04-06T05:04:48;-0.40;99.90
16801;DHT22;8518;53.236;10.384;2023-04-06T05:07:13;-0.50;99.90
16801;DHT22;8518;53.236;10.384;2023-04-06T05:09:40;-0.40;99.90
16801;DHT22;8518;53.236;10.384;2023-04-06T05:12:06;-0.40;99.90
16801;DHT22;8518;53.236;10.384;2023-04-06T05:14:32;-0.30;99.90
16801;DHT22;8518;53.236;10.384;2023-04-06T05:16:58;-0.30;99.90
16801;DHT22;8518;53.236;10.384;2023-04-06T05:19:23;-0.80;99.90
16801;DHT22;8518;53.236;10.384;2023-04-06T05:21:49;0.70;99.90
16801;DHT22;8518;53.236;10.384;2023-04-06T05:27:37;-0.10;99.90
16801;DHT22;8518;53.236;10.384;2023-04-06T05:30:03;0.00;99.90
16801;DHT22;8518;53.236;10.384;2023-04-06T05:35:51;0.00;99.90
16801;DHT22;8518;53.236;10.384;2023-04-06T05:38:16;-0.10;99.90
16801;DHT22;8518;53.236;10.384;2023-04-06T05:40:42;-0.10;99.90
16801;DHT22;8518;53.236;10.384;2023-04-06T05:46:31;0.40;99.90
16801;DHT22;8518;53.236;10.384;2023-04-06T05:48:56;0.60;99.90
16801;DHT22;8518;53.236;10.384;2023-04-06T05:51:22;0.60;99.90
16801;DHT22;8518;53.236;10.384;2023-04-06T05:57:10;1.10;99.90
16801;DHT22;8518;53.236;10.384;2023-04-06T05:59:36;2.90;99.90
16801;DHT22;8518;53.236;10.384;2023-04-06T06:02:01;1.40;99.90
16801;DHT22;8518;53.236;10.384;2023-04-06T06:04:27;1.50;99.90
16801;DHT22;8518;53.236;10.384;2023-04-06T06:06:54;1.60;99.90
16801;DHT22;8518;53.236;10.384;2023-04-06T06:09:19;1.80;99.90
16801;DHT22;8518;53.236;10.384;2023-04-06T06:11:45;2.00;99.90
16801;DHT22;8518;53.236;10.384;2023-04-06T06:17:33;2.50;99.90
16801;DHT22;8518;53.236;10.384;2023-04-06T06:19:59;4.00;99.90
16801;DHT22;8518;53.236;10.384;2023-04-06T06:22:24;2.70;99.90
16801;DHT22;8518;53.236;10.384;2023-04-06T06:24:50;2.80;99.90
16801;DHT22;8518;53.236;10.384;2023-04-06T06:27:16;2.90;99.90
16801;DHT22;8518;53.236;10.384;2023-04-06T06:29:41;2.90;99.90
16801;DHT22;8518;53.236;10.384;2023-04-06T06:32:07;3.10;99.90
16801;DHT22;8518;53.236;10.384;2023-04-06T06:34:35;3.90;99.90
16801;DHT22;8518;53.236;10.384;2023-04-06T06:37:00;3.30;99.90
16801;DHT22;8518;53.236;10.384;2023-04-06T06:39:27;3.80;99.90
16801;DHT22;8518;53.236;10.384;2023-04-06T06:41:53;3.90;99.90
16801;DHT22;8518;53.236;10.384;2023-04-06T06:47:42;4.60;99.90
16801;DHT22;8518;53.236;10.384;2023-04-06T06:50:08;4.80;99.90
16801;DHT22;8518;53.236;10.384;2023-04-06T06:55:56;5.40;99.90
16801;DHT22;8518;53.236;10.384;2023-04-06T06:58:22;6.90;99.90
16801;DHT22;8518;53.236;10.384;2023-04-06T07:00:51;5.40;99.90
16801;DHT22;8518;53.236;10.384;2023-04-06T07:06:42;6.10;99.90
16801;DHT22;8518;53.236;10.384;2023-04-06T07:09:09;5.70;99.90
16801;DHT22;8518;53.236;10.384;2023-04-06T07:11:34;7.20;99.90
16801;DHT22;8518;53.236;10.384;2023-04-06T07:17:22;7.30;99.90
16801;DHT22;8518;53.236;10.384;2023-04-06T07:19:48;8.00;99.90
16801;DHT22;8518;53.236;10.384;2023-04-06T07:22:14;7.50;99.90
16801;DHT22;8518;53.236;10.384;2023-04-06T07:24:40;8.00;99.90
16801;DHT22;8518;53.236;10.384;2023-04-06T07:27:05;7.70;99.90
16801;DHT22;8518;53.236;10.384;2023-04-06T07:29:31;9.60;99.90
16801;DHT22;8518;53.236;10.384;2023-04-06T07:31:57;8.40;99.90
16801;DHT22;8518;53.236;10.384;2023-04-06T07:34:23;9.00;99.90
16801;DHT22;8518;53.236;10.384;2023-04-06T07:36:48;9.90;99.90
16801;DHT22;8518;53.236;10.384;2023-04-06T07:39:15;9.80;99.40
16801;DHT22;8518;53.236;10.384;2023-04-06T07:41:41;9.90;99.00
16801;DHT22;8518;53.236;10.384;2023-04-06T07:47:29;10.90;97.10
16801;DHT22;8518;53.236;10.384;2023-04-06T07:49:55;11.30;96.50
16801;DHT22;8518;53.236;10.384;2023-04-06T07:52:23;11.70;95.30
16801;DHT22;8518;53.236;10.384;2023-04-06T07:54:49;12.10;94.00
16801;DHT22;8518;53.236;10.384;2023-04-06T07:57:17;12.50;92.90
16801;DHT22;8518;53.236;10.384;2023-04-06T07:59:43;12.80;92.20
16801;DHT22;8518;53.236;10.384;2023-04-06T08:02:09;13.70;90.20
16801;DHT22;8518;53.236;10.384;2023-04-06T08:04:35;14.40;87.60
16801;DHT22;8518;53.236;10.384;2023-04-06T08:07:01;15.40;82.10
16801;DHT22;8518;53.236;10.384;2023-04-06T08:09:27;16.70;77.60
16801;DHT22;8518;53.236;10.384;2023-04-06T08:11:59;16.50;68.30
16801;DHT22;8518;53.236;10.384;2023-04-06T08:14:30;16.80;65.40
16801;DHT22;8518;53.236;10.384;2023-04-06T08:16:56;16.90;60.50
16801;DHT22;8518;53.236;10.384;2023-04-06T08:19:21;17.90;58.50
16801;DHT22;8518;53.236;10.384;2023-04-06T08:21:47;17.70;57.00
16801;DHT22;8518;53.236;10.384;2023-04-06T08:27:42;19.60;52.00
16801;DHT22;8518;53.236;10.384;2023-04-06T08:30:08;20.50;48.30
16801;DHT22;8518;53.236;10.384;2023-04-06T08:35:56;22.30;44.40
16801;DHT22;8518;53.236;10.384;2023-04-06T08:41:44;22.50;39.10
16801;DHT22;8518;53.236;10.384;2023-04-06T08:47:32;23.40;37.50
16801;DHT22;8518;53.236;10.384;2023-04-06T08:53:21;23.50;35.50
16801;DHT22;8518;53.236;10.384;2023-04-06T08:55:47;23.10;34.80
16801;DHT22;8518;53.236;10.384;2023-04-06T08:58:16;23.00;33.90
16801;DHT22;8518;53.236;10.384;2023-04-06T09:00:42;22.00;34.20
16801;DHT22;8518;53.236;10.384;2023-04-06T09:06:31;22.10;32.50
16801;DHT22;8518;53.236;10.384;2023-04-06T09:08:57;21.50;33.90
16801;DHT22;8518;53.236;10.384;2023-04-06T09:11:29;21.50;34.60
16801;DHT22;8518;53.236;10.384;2023-04-06T09:17:21;22.00;31.30
16801;DHT22;8518;53.236;10.384;2023-04-06T09:19:50;21.70;32.40
16801;DHT22;8518;53.236;10.384;2023-04-06T09:22:16;21.80;31.80
16801;DHT22;8518;53.236;10.384;2023-04-06T09:24:47;22.30;31.80
16801;DHT22;8518;53.236;10.384;2023-04-06T09:27:13;21.10;31.60
16801;DHT22;8518;53.236;10.384;2023-04-06T09:29:40;21.40;31.70
16801;DHT22;8518;53.236;10.384;2023-04-06T09:32:10;21.60;32.30
16801;DHT22;8518;53.236;10.384;2023-04-06T09:34:39;22.00;32.00
16801;DHT22;8518;53.236;10.384;2023-04-06T09:37:18;21.60;30.50
16801;DHT22;8518;53.236;10.384;2023-04-06T09:39:45;20.70;32.80
16801;DHT22;8518;53.236;10.384;2023-04-06T09:42:31;21.30;31.90
16801;DHT22;8518;53.236;10.384;2023-04-06T09:44:57;21.40;31.70
16801;DHT22;8518;53.236;10.384;2023-04-06T09:47:23;21.20;31.70
16801;DHT22;8518;53.236;10.384;2023-04-06T09:49:50;21.30;30.90
16801;DHT22;8518;53.236;10.384;2023-04-06T09:52:19;20.90;31.20
16801;DHT22;8518;53.236;10.384;2023-04-06T09:54:50;20.60;32.00
16801;DHT22;8518;53.236;10.384;2023-04-06T09:57:25;20.90;32.80
16801;DHT22;8518;53.236;10.384;2023-04-06T10:00:07;22.40;31.40
16801;DHT22;8518;53.236;10.384;2023-04-06T10:06:05;21.90;31.00
16801;DHT22;8518;53.236;10.384;2023-04-06T10:08:35;22.30;31.60
16801;DHT22;8518;53.236;10.384;2023-04-06T10:11:02;22.50;30.80
16801;DHT22;8518;53.236;10.384;2023-04-06T10:16:51;23.30;29.40
16801;DHT22;8518;53.236;10.384;2023-04-06T10:22:49;23.80;29.00
16801;DHT22;8518;53.236;10.384;2023-04-06T10:25:30;24.60;29.50
16801;DHT22;8518;53.236;10.384;2023-04-06T10:28:06;23.30;28.90
16801;DHT22;8518;53.236;10.384;2023-04-06T10:30:33;23.40;29.70
16801;DHT22;8518;53.236;10.384;2023-04-06T10:36:23;22.90;28.60
16801;DHT22;8518;53.236;10.384;2023-04-06T10:38:59;22.70;29.20
16801;DHT22;8518;53.236;10.384;2023-04-06T10:41:42;23.10;28.80
16801;DHT22;8518;53.236;10.384;2023-04-06T10:47:40;23.30;28.90
16801;DHT22;8518;53.236;10.384;2023-04-06T10:50:06;23.20;28.80
16801;DHT22;8518;53.236;10.384;2023-04-06T10:55:57;24.30;28.50
16801;DHT22;8518;53.236;10.384;2023-04-06T10:58:27;24.80;27.50
16801;DHT22;8518;53.236;10.384;2023-04-06T11:00:54;24.50;27.70
16801;DHT22;8518;53.236;10.384;2023-04-06T11:06:41;23.80;28.50
16801;DHT22;8518;53.236;10.384;2023-04-06T11:09:11;24.30;27.40
16801;DHT22;8518;53.236;10.384;2023-04-06T11:11:39;24.20;27.20
16801;DHT22;8518;53.236;10.384;2023-04-06T11:17:28;25.20;26.60
16801;DHT22;8518;53.236;10.384;2023-04-06T11:19:54;25.80;26.40
16801;DHT22;8518;53.236;10.384;2023-04-06T11:22:20;26.70;25.80
16801;DHT22;8518;53.236;10.384;2023-04-06T11:24:45;26.50;25.80
16801;DHT22;8518;53.236;10.384;2023-04-06T11:27:11;25.10;26.20
16801;DHT22;8518;53.236;10.384;2023-04-06T11:29:37;25.10;26.30
16801;DHT22;8518;53.236;10.384;2023-04-06T11:32:06;25.20;26.70
16801;DHT22;8518;53.236;10.384;2023-04-06T11:34:36;25.40;26.40
16801;DHT22;8518;53.236;10.384;2023-04-06T11:37:11;24.90;26.40
16801;DHT22;8518;53.236;10.384;2023-04-06T11:39:50;24.50;26.30
16801;DHT22;8518;53.236;10.384;2023-04-06T11:45:42;24.40;26.40
16801;DHT22;8518;53.236;10.384;2023-04-06T11:51:36;25.40;26.10
16801;DHT22;8518;53.236;10.384;2023-04-06T11:57:24;26.60;25.60
16801;DHT22;8518;53.236;10.384;2023-04-06T11:59:51;27.30;25.10
16801;DHT22;8518;53.236;10.384;2023-04-06T12:02:16;26.50;25.40
16801;DHT22;8518;53.236;10.384;2023-04-06T12:04:43;26.40;25.60
16801;DHT22;8518;53.236;10.384;2023-04-06T12:07:09;26.00;25.90
16801;DHT22;8518;53.236;10.384;2023-04-06T12:09:34;26.10;25.40
16801;DHT22;8518;53.236;10.384;2023-04-06T12:12:01;25.60;25.80
16801;DHT22;8518;53.236;10.384;2023-04-06T12:14:27;26.20;25.70
16801;DHT22;8518;53.236;10.384;2023-04-06T12:16:52;26.50;25.50
16801;DHT22;8518;53.236;10.384;2023-04-06T12:19:18;26.50;25.80
16801;DHT22;8518;53.236;10.384;2023-04-06T12:21:44;27.00;25.20
16801;DHT22;8518;53.236;10.384;2023-04-06T12:27:32;27.90;24.50
16801;DHT22;8518;53.236;10.384;2023-04-06T12:29:58;27.10;25.00
16801;DHT22;8518;53.236;10.384;2023-04-06T12:32:23;26.10;25.60
16801;DHT22;8518;53.236;10.384;2023-04-06T12:34:52;24.60;26.60
16801;DHT22;8518;53.236;10.384;2023-04-06T12:37:17;23.70;27.50
16801;DHT22;8518;53.236;10.384;2023-04-06T12:39:43;23.30;28.40
16801;DHT22;8518;53.236;10.384;2023-04-06T12:42:10;23.60;28.40
16801;DHT22;8518;53.236;10.384;2023-04-06T12:44:36;24.40;27.50
16801;DHT22;8518;53.236;10.384;2023-04-06T12:47:01;25.00;27.20
16801;DHT22;8518;53.236;10.384;2023-04-06T12:49:28;25.60;27.00
16801;DHT22;8518;53.236;10.384;2023-04-06T12:51:53;26.60;26.10
16801;DHT22;8518;53.236;10.384;2023-04-06T12:57:41;25.30;25.70
16801;DHT22;8518;53.236;10.384;2023-04-06T13:00:11;24.90;26.00
16801;DHT22;8518;53.236;10.384;2023-04-06T13:06:00;24.10;27.00
16801;DHT22;8518;53.236;10.384;2023-04-06T13:08:26;23.20;27.90
16801;DHT22;8518;53.236;10.384;2023-04-06T13:10:53;22.80;28.20
16801;DHT22;8518;53.236;10.384;2023-04-06T13:16:41;22.30;28.50
16801;DHT22;8518;53.236;10.384;2023-04-06T13:22:29;21.30;29.00
16801;DHT22;8518;53.236;10.384;2023-04-06T13:24:54;21.20;29.90
16801;DHT22;8518;53.236;10.384;2023-04-06T13:27:20;21.10;30.20
16801;DHT22;8518;53.236;10.384;2023-04-06T13:29:46;20.60;30.80
16801;DHT22;8518;53.236;10.384;2023-04-06T13:32:11;19.50;31.80
16801;DHT22;8518;53.236;10.384;2023-04-06T13:34:37;19.10;32.80
16801;DHT22;8518;53.236;10.384;2023-04-06T13:37:02;18.50;32.90
16801;DHT22;8518;53.236;10.384;2023-04-06T13:39:28;18.20;34.00
16801;DHT22;8518;53.236;10.384;2023-04-06T13:41:54;17.60;35.60
16801;DHT22;8518;53.236;10.384;2023-04-06T13:47:43;17.50;36.10
16801;DHT22;8518;53.236;10.384;2023-04-06T13:50:08;17.50;35.50
16801;DHT22;8518;53.236;10.384;2023-04-06T13:55:56;17.00;35.50
16801;DHT22;8518;53.236;10.384;2023-04-06T14:01:44;16.20;37.60
16801;DHT22;8518;53.236;10.384;2023-04-06T14:07:32;16.00;38.40
16801;DHT22;8518;53.236;10.384;2023-04-06T14:09:58;15.90;39.00
16801;DHT22;8518;53.236;10.384;2023-04-06T14:12:23;15.90;39.30
16801;DHT22;8518;53.236;10.384;2023-04-06T14:14:49;16.00;39.00
16801;DHT22;8518;53.236;10.384;2023-04-06T14:17:15;15.80;40.00
16801;DHT22;8518;53.236;10.384;2023-04-06T14:19:41;15.80;39.20
16801;DHT22;8518;53.236;10.384;2023-04-06T14:22:07;15.80;39.20
16801;DHT22;8518;53.236;10.384;2023-04-06T14:24:33;15.60;39.80
16801;DHT22;8518;53.236;10.384;2023-04-06T14:27:01;15.50;40.70
16801;DHT22;8518;53.236;10.384;2023-04-06T14:29:27;15.40;40.20
16801;DHT22;8518;53.236;10.384;2023-04-06T14:31:53;15.50;40.50
16801;DHT22;8518;53.236;10.384;2023-04-06T14:34:27;15.80;40.10
16801;DHT22;8518;53.236;10.384;2023-04-06T14:36:53;15.40;40.70
16801;DHT22;8518;53.236;10.384;2023-04-06T14:39:18;15.10;41.00
16801;DHT22;8518;53.236;10.384;2023-04-06T14:41:44;15.00;41.70
16801;DHT22;8518;53.236;10.384;2023-04-06T14:47:32;15.00;41.50
16801;DHT22;8518;53.236;10.384;2023-04-06T14:49:58;15.10;41.70
16801;DHT22;8518;53.236;10.384;2023-04-06T14:52:23;14.90;41.60
16801;DHT22;8518;53.236;10.384;2023-04-06T14:54:49;15.30;42.50
16801;DHT22;8518;53.236;10.384;2023-04-06T14:57:15;15.00;42.10
16801;DHT22;8518;53.236;10.384;2023-04-06T14:59:40;14.80;41.80
16801;DHT22;8518;53.236;10.384;2023-04-06T15:02:06;14.70;43.10
16801;DHT22;8518;53.236;10.384;2023-04-06T15:04:34;15.40;43.40
16801;DHT22;8518;53.236;10.384;2023-04-06T15:07:01;14.60;41.90
16801;DHT22;8518;53.236;10.384;2023-04-06T15:09:27;14.50;42.10
16801;DHT22;8518;53.236;10.384;2023-04-06T15:11:53;14.90;42.90
16801;DHT22;8518;53.236;10.384;2023-04-06T15:17:40;14.10;43.50
16801;DHT22;8518;53.236;10.384;2023-04-06T15:20:06;14.30;43.60
16801;DHT22;8518;53.236;10.384;2023-04-06T15:25:54;14.30;43.60
16801;DHT22;8518;53.236;10.384;2023-04-06T15:28:20;14.10;43.70
16801;DHT22;8518;53.236;10.384;2023-04-06T15:30:45;14.20;44.00
16801;DHT22;8518;53.236;10.384;2023-04-06T15:36:33;14.00;44.00
16801;DHT22;8518;53.236;10.384;2023-04-06T15:38:59;13.90;44.10
16801;DHT22;8518;53.236;10.384;2023-04-06T15:41:26;13.80;44.80
16801;DHT22;8518;53.236;10.384;2023-04-06T15:47:15;14.00;45.00
16801;DHT22;8518;53.236;10.384;2023-04-06T15:49:40;14.00;45.10
16801;DHT22;8518;53.236;10.384;2023-04-06T15:52:06;14.00;44.60
16801;DHT22;8518;53.236;10.384;2023-04-06T15:54:32;14.00;44.70
16801;DHT22;8518;53.236;10.384;2023-04-06T15:56:58;13.90;44.70
16801;DHT22;8518;53.236;10.384;2023-04-06T15:59:23;13.60;45.30
16801;DHT22;8518;53.236;10.384;2023-04-06T16:01:49;14.90;46.10
16801;DHT22;8518;53.236;10.384;2023-04-06T16:07:36;13.50;46.30
16801;DHT22;8518;53.236;10.384;2023-04-06T16:10:03;13.50;46.70
16801;DHT22;8518;53.236;10.384;2023-04-06T16:15:51;13.30;46.40
16801;DHT22;8518;53.236;10.384;2023-04-06T16:21:40;13.10;47.20
16801;DHT22;8518;53.236;10.384;2023-04-06T16:27:28;12.90;48.10
16801;DHT22;8518;53.236;10.384;2023-04-06T16:29:53;12.90;48.90
16801;DHT22;8518;53.236;10.384;2023-04-06T16:32:19;12.90;48.80
16801;DHT22;8518;53.236;10.384;2023-04-06T16:34:45;13.60;49.00
16801;DHT22;8518;53.236;10.384;2023-04-06T16:37:11;12.80;49.30
16801;DHT22;8518;53.236;10.384;2023-04-06T16:39:37;12.80;49.10
16801;DHT22;8518;53.236;10.384;2023-04-06T16:42:02;13.50;49.30
16801;DHT22;8518;53.236;10.384;2023-04-06T16:44:28;12.60;50.00
16801;DHT22;8518;53.236;10.384;2023-04-06T16:46:55;13.10;50.10
16801;DHT22;8518;53.236;10.384;2023-04-06T16:49:21;12.50;49.90
16801;DHT22;8518;53.236;10.384;2023-04-06T16:51:46;12.40;49.60
16801;DHT22;8518;53.236;10.384;2023-04-06T16:57:35;12.30;50.10
16801;DHT22;8518;53.236;10.384;2023-04-06T17:03:23;12.00;51.00
16801;DHT22;8518;53.236;10.384;2023-04-06T17:05:49;12.00;51.80
16801;DHT22;8518;53.236;10.384;2023-04-06T17:08:15;11.90;51.50
16801;DHT22;8518;53.236;10.384;2023-04-06T17:10:40;12.10;51.90
16801;DHT22;8518;53.236;10.384;2023-04-06T17:16:28;11.70;51.80
16801;DHT22;8518;53.236;10.384;2023-04-06T17:18:54;11.60;52.20
16801;DHT22;8518;53.236;10.384;2023-04-06T17:21:22;11.50;52.40
16801;DHT22;8518;53.236;10.384;2023-04-06T17:27:10;11.40;53.60
16801;DHT22;8518;53.236;10.384;2023-04-06T17:29:36;11.60;54.70
16801;DHT22;8518;53.236;10.384;2023-04-06T17:32:01;11.30;54.30
16801;DHT22;8518;53.236;10.384;2023-04-06T17:34:27;11.80;54.40
16801;DHT22;8518;53.236;10.384;2023-04-06T17:36:53;11.10;54.80
16801;DHT22;8518;53.236;10.384;2023-04-06T17:39:18;11.10;54.90
16801;DHT22;8518;53.236;10.384;2023-04-06T17:41:44;11.10;55.00
16801;DHT22;8518;53.236;10.384;2023-04-06T17:47:32;10.90;55.60
16801;DHT22;8518;53.236;10.384;2023-04-06T17:49:59;10.80;56.60
16801;DHT22;8518;53.236;10.384;2023-04-06T17:55:47;10.60;56.70
16801;DHT22;8518;53.236;10.384;2023-04-06T17:58:12;10.50;57.50
16801;DHT22;8518;53.236;10.384;2023-04-06T18:00:38;10.70;58.00
16801;DHT22;8518;53.236;10.384;2023-04-06T18:06:28;10.30;58.90
16801;DHT22;8518;53.236;10.384;2023-04-06T18:08:54;10.20;59.70
16801;DHT22;8518;53.236;10.384;2023-04-06T18:11:20;11.60;60.60
16801;DHT22;8518;53.236;10.384;2023-04-06T18:17:08;10.00;60.00
16801;DHT22;8518;53.236;10.384;2023-04-06T18:19:33;9.90;60.20
16801;DHT22;8518;53.236;10.384;2023-04-06T18:22:02;11.40;61.90
16801;DHT22;8518;53.236;10.384;2023-04-06T18:24:28;9.90;61.50
16801;DHT22;8518;53.236;10.384;2023-04-06T18:26:54;9.80;61.00
16801;DHT22;8518;53.236;10.384;2023-04-06T18:29:20;9.70;61.60
16801;DHT22;8518;53.236;10.384;2023-04-06T18:31:46;9.60;62.10
16801;DHT22;8518;53.236;10.384;2023-04-06T18:37:37;9.50;62.90
16801;DHT22;8518;53.236;10.384;2023-04-06T18:40:02;10.90;64.80
16801;DHT22;8518;53.236;10.384;2023-04-06T18:45:50;9.40;64.60
16801;DHT22;8518;53.236;10.384;2023-04-06T18:51:38;9.30;66.10
16801;DHT22;8518;53.236;10.384;2023-04-06T18:57:27;9.10;68.00
16801;DHT22;8518;53.236;10.384;2023-04-06T18:59:53;10.20;69.80
16801;DHT22;8518;53.236;10.384;2023-04-06T19:02:19;9.00;69.70
16801;DHT22;8518;53.236;10.384;2023-04-06T19:04:45;9.00;70.70
16801;DHT22;8518;53.236;10.384;2023-04-06T19:07:11;8.90;72.60
16801;DHT22;8518;53.236;10.384;2023-04-06T19:09:38;8.80;72.20
16801;DHT22;8518;53.236;10.384;2023-04-06T19:12:04;8.70;73.00
16801;DHT22;8518;53.236;10.384;2023-04-06T19:14:30;8.70;74.30
16801;DHT22;8518;53.236;10.384;2023-04-06T19:16:57;8.70;75.40
16801;DHT22;8518;53.236;10.384;2023-04-06T19:19:22;8.60;75.20
16801;DHT22;8518;53.236;10.384;2023-04-06T19:21:48;8.60;76.50
16801;DHT22;8518;53.236;10.384;2023-04-06T19:27:36;8.60;76.00
16801;DHT22;8518;53.236;10.384;2023-04-06T19:30:06;9.50;78.50
16801;DHT22;8518;53.236;10.384;2023-04-06T19:35:54;8.50;77.40
16801;DHT22;8518;53.236;10.384;2023-04-06T19:38:20;8.40;77.80
16801;DHT22;8518;53.236;10.384;2023-04-06T19:40:45;8.40;78.30
16801;DHT22;8518;53.236;10.384;2023-04-06T19:46:34;8.40;78.60
16801;DHT22;8518;53.236;10.384;2023-04-06T19:49:00;8.30;78.80
16801;DHT22;8518;53.236;10.384;2023-04-06T19:51:35;8.70;79.40
16801;DHT22;8518;53.236;10.384;2023-04-06T19:57:24;8.20;79.40
16801;DHT22;8518;53.236;10.384;2023-04-06T19:59:52;8.60;80.90
16801;DHT22;8518;53.236;10.384;2023-04-06T20:02:18;9.00;80.70
16801;DHT22;8518;53.236;10.384;2023-04-06T20:04:44;8.20;81.40
16801;DHT22;8518;53.236;10.384;2023-04-06T20:07:10;8.10;80.50
16801;DHT22;8518;53.236;10.384;2023-04-06T20:09:35;8.10;81.20
16801;DHT22;8518;53.236;10.384;2023-04-06T20:12:01;9.90;83.20
16801;DHT22;8518;53.236;10.384;2023-04-06T20:14:28;9.00;82.00
16801;DHT22;8518;53.236;10.384;2023-04-06T20:16:54;8.10;81.50
16801;DHT22;8518;53.236;10.384;2023-04-06T20:19:20;8.60;82.20
16801;DHT22;8518;53.236;10.384;2023-04-06T20:21:45;8.00;82.40